Time;durP1;ratioP1;P1;durP2;ratioP2;P2;SDS_P1;SDS_P2;PMS_P1;PMS_P2;Temp;Humidity;BMP_temperature;BMP_pressure;BME280_temperature;BME280_humidity;BME280_pressure;Samples;Min_cycle;Max_cycle;Signal;HPM_P1;HPM_P2
2022/07/06 00:01:39;;;;;;;4.55;4.25;;;22.60;45.80;;;;;;5038010;28;20180;-87
2022/07/06 00:04:05;;;;;;;4.72;4.43;;;22.50;46.60;;;;;;5043828;28;20211;-88
2022/07/06 00:06:32;;;;;;;4.95;4.55;;;22.40;46.50;;;;;;5036571;28;20185;-88
2022/07/06 00:08:57;;;;;;;6.03;4.63;;;22.60;46.10;;;;;;5028035;28;20206;-88
2022/07/06 00:11:24;;;;;;;4.65;4.35;;;22.70;46.60;;;;;;5031645;28;20634;-88
2022/07/06 00:13:50;;;;;;;4.75;4.45;;;22.80;46.10;;;;;;5035459;28;20197;-88
2022/07/06 00:16:17;;;;;;;4.90;4.50;;;22.80;46.10;;;;;;5031641;28;20208;-88
2022/07/06 00:18:43;;;;;;;4.80;4.50;;;23.00;45.30;;;;;;5037878;28;20189;-87
2022/07/06 00:21:09;;;;;;;4.72;4.43;;;23.10;45.60;;;;;;5030214;28;20820;-87
2022/07/06 00:23:35;;;;;;;5.15;4.85;;;23.10;45.30;;;;;;5032377;28;20204;-87
2022/07/06 00:26:01;;;;;;;5.35;4.95;;;22.90;45.70;;;;;;5035053;28;20215;-87
2022/07/06 00:28:26;;;;;;;5.30;5.00;;;22.80;46.50;;;;;;5037708;28;20201;-88
2022/07/06 00:30:53;;;;;;;5.75;5.35;;;22.90;47.10;;;;;;5027247;28;20185;-88
2022/07/06 00:33:19;;;;;;;4.97;4.65;;;23.00;46.40;;;;;;5033139;28;20297;-88
2022/07/06 00:35:45;;;;;;;5.15;4.85;;;23.20;46.40;;;;;;5028551;28;20181;-88
2022/07/06 00:38:10;;;;;;;5.38;4.97;;;23.10;46.50;;;;;;5035726;28;20192;-88
2022/07/06 00:40:36;;;;;;;5.20;4.80;;;23.30;46.10;;;;;;5036412;28;20203;-88
2022/07/06 00:43:02;;;;;;;5.93;5.43;;;23.40;46.40;;;;;;5027526;28;20228;-88
2022/07/06 00:45:28;;;;;;;5.72;5.10;;;23.50;45.70;;;;;;5037754;28;20564;-88
2022/07/06 00:47:54;;;;;;;5.78;5.30;;;23.50;46.10;;;;;;5038636;28;20312;-88
2022/07/06 00:50:21;;;;;;;5.32;4.97;;;23.60;45.60;;;;;;5037429;28;20189;-88
2022/07/06 00:52:54;;;;;;;5.30;4.90;;;23.40;47.60;;;;;;5029893;28;20232;-88
2022/07/06 00:55:31;;;;;;;6.63;5.90;;;23.40;47.40;;;;;;5026719;28;20201;-89
2022/07/06 00:57:57;;;;;;;4.95;4.75;;;23.40;47.90;;;;;;5035654;28;20192;-87
2022/07/06 01:00:25;;;;;;;5.13;4.82;;;23.30;48.10;;;;;;5038226;28;20217;-87
2022/07/06 01:02:51;;;;;;;6.07;5.68;;;23.40;47.00;;;;;;5033489;28;20207;-87
2022/07/06 01:05:18;;;;;;;5.22;4.82;;;23.40;47.90;;;;;;5034557;28;20184;-88
2022/07/06 01:07:46;;;;;;;5.18;4.95;;;23.50;47.80;;;;;;5035344;28;20574;-88
2022/07/06 01:10:15;;;;;;;5.20;4.88;;;23.50;47.60;;;;;;5034879;28;20186;-88
2022/07/06 01:12:43;;;;;;;6.25;5.78;;;23.50;47.90;;;;;;5035755;28;20205;-88
2022/07/06 01:15:14;;;;;;;5.85;5.45;;;23.30;49.10;;;;;;5034506;28;20196;-88
2022/07/06 01:17:41;;;;;;;6.22;5.82;;;23.10;49.20;;;;;;5026670;28;20216;-88
2022/07/06 01:20:11;;;;;;;5.70;5.30;;;22.60;50.60;;;;;;5036606;28;20204;-88
2022/07/06 01:22:37;;;;;;;6.28;5.78;;;22.50;51.80;;;;;;5028375;28;20217;-87
2022/07/06 01:25:04;;;;;;;6.10;5.55;;;22.30;52.80;;;;;;5026152;28;20197;-87
2022/07/06 01:27:30;;;;;;;6.07;5.65;;;22.30;52.20;;;;;;5030905;28;20205;-88
2022/07/06 01:29:56;;;;;;;5.70;5.30;;;22.20;52.70;;;;;;5034462;28;20195;-88
2022/07/06 01:32:22;;;;;;;5.93;5.53;;;22.20;54.10;;;;;;5038310;28;20197;-88
2022/07/06 01:34:48;;;;;;;6.30;5.80;;;22.10;54.80;;;;;;5029959;28;20197;-88
2022/07/06 01:37:13;;;;;;;6.20;5.80;;;22.00;55.40;;;;;;5035781;28;20226;-89
2022/07/06 01:39:39;;;;;;;5.80;5.28;;;21.90;55.90;;;;;;5037162;28;20197;-88
2022/07/06 01:42:05;;;;;;;5.78;5.38;;;22.10;55.40;;;;;;5032031;28;20253;-88
2022/07/06 01:44:31;;;;;;;6.00;5.57;;;22.10;55.00;;;;;;5031187;28;20240;-88
2022/07/06 01:46:57;;;;;;;7.03;6.35;;;22.00;55.60;;;;;;5039681;28;20203;-87
2022/07/06 01:49:22;;;;;;;5.95;5.65;;;22.00;55.50;;;;;;5029177;28;20224;-88
2022/07/06 01:51:48;;;;;;;6.32;5.78;;;21.90;55.90;;;;;;5031106;28;20677;-88
2022/07/06 01:54:14;;;;;;;5.85;5.43;;;22.00;53.60;;;;;;5031195;28;20221;-88
2022/07/06 01:56:39;;;;;;;6.60;6.05;;;21.70;56.30;;;;;;5036552;28;20189;-88
2022/07/06 01:59:05;;;;;;;5.90;5.40;;;21.70;55.30;;;;;;5034484;28;20232;-88
2022/07/06 02:01:31;;;;;;;6.60;6.20;;;21.60;57.00;;;;;;5031491;28;20212;-87
2022/07/06 02:03:57;;;;;;;5.93;5.57;;;21.60;57.10;;;;;;5037460;28;20282;-88
2022/07/06 02:06:22;;;;;;;6.65;6.10;;;21.70;57.20;;;;;;5034746;28;20224;-87
2022/07/06 02:08:48;;;;;;;5.78;5.35;;;21.80;56.80;;;;;;5033406;28;20347;-90
2022/07/06 02:11:14;;;;;;;6.28;5.97;;;21.80;56.80;;;;;;5031516;28;20189;-87
2022/07/06 02:13:40;;;;;;;6.47;5.97;;;21.90;56.20;;;;;;5028787;28;20215;-87
2022/07/06 02:16:06;;;;;;;7.05;6.43;;;21.90;56.10;;;;;;5041158;28;20181;-88
2022/07/06 02:18:32;;;;;;;6.82;5.80;;;22.00;56.00;;;;;;5038802;28;20181;-87
2022/07/06 02:20:57;;;;;;;6.35;5.63;;;22.00;56.00;;;;;;5033501;28;20242;-87
2022/07/06 02:23:23;;;;;;;6.25;5.85;;;22.00;56.00;;;;;;5035593;28;20208;-87
2022/07/06 02:25:49;;;;;;;6.28;5.97;;;22.00;56.00;;;;;;5036138;28;20195;-87
2022/07/06 02:28:14;;;;;;;6.25;5.95;;;21.80;56.40;;;;;;5038468;28;20212;-88
2022/07/06 02:30:40;;;;;;;6.07;5.70;;;21.80;56.80;;;;;;5034282;28;20180;-88
2022/07/06 02:33:06;;;;;;;6.78;6.38;;;21.70;56.90;;;;;;5033570;28;20201;-88
2022/07/06 02:35:32;;;;;;;6.50;6.00;;;21.60;56.50;;;;;;5036616;28;20448;-87
2022/07/06 02:37:57;;;;;;;6.63;6.05;;;21.70;56.70;;;;;;5041512;28;20185;-89
2022/07/06 02:40:23;;;;;;;6.65;6.03;;;21.80;56.70;;;;;;5037990;28;20172;-89
2022/07/06 02:42:49;;;;;;;6.50;6.10;;;21.80;56.40;;;;;;5043441;28;20200;-88
2022/07/06 02:45:15;;;;;;;6.57;6.13;;;21.70;57.10;;;;;;5044594;28;20185;-88
2022/07/06 02:47:40;;;;;;;6.30;5.90;;;21.60;57.70;;;;;;5041725;28;20221;-89
2022/07/06 02:50:06;;;;;;;6.70;6.20;;;21.50;58.60;;;;;;5031528;28;20197;-88
2022/07/06 02:52:32;;;;;;;6.50;6.00;;;21.40;58.10;;;;;;5035580;28;20181;-88
2022/07/06 02:54:58;;;;;;;6.32;6.00;;;21.30;58.30;;;;;;5031220;28;20243;-88
2022/07/06 02:57:24;;;;;;;6.40;5.90;;;21.20;58.40;;;;;;5034353;28;20191;-88
2022/07/06 02:59:49;;;;;;;6.63;6.22;;;21.30;58.50;;;;;;5035418;28;20287;-88
2022/07/06 03:02:16;;;;;;;6.32;6.00;;;21.10;59.50;;;;;;5037201;28;20197;-88
2022/07/06 03:04:42;;;;;;;5.63;5.32;;;21.10;59.20;;;;;;5031045;28;20192;-88
2022/07/06 03:07:08;;;;;;;5.95;5.45;;;21.10;59.60;;;;;;5033648;28;20185;-87
2022/07/06 03:09:34;;;;;;;5.95;5.60;;;21.00;59.80;;;;;;5029441;28;20192;-88
2022/07/06 03:12:00;;;;;;;6.00;5.50;;;21.00;59.80;;;;;;5032441;28;20198;-87
2022/07/06 03:14:26;;;;;;;5.70;5.32;;;20.90;60.40;;;;;;5040152;28;20280;-87
2022/07/06 03:16:53;;;;;;;6.13;5.50;;;20.90;60.50;;;;;;5036825;28;20184;-88
2022/07/06 03:19:19;;;;;;;5.47;5.18;;;20.90;60.40;;;;;;5038237;28;20185;-88
2022/07/06 03:21:45;;;;;;;6.15;4.80;;;21.00;60.40;;;;;;5042098;28;20196;-88
2022/07/06 03:24:11;;;;;;;5.07;4.78;;;20.90;61.10;;;;;;5040219;28;20224;-88
2022/07/06 03:26:37;;;;;;;5.32;5.03;;;20.90;60.70;;;;;;5033399;28;20190;-86
2022/07/06 03:29:02;;;;;;;5.22;4.82;;;20.90;60.60;;;;;;5043926;28;20211;-88
2022/07/06 03:31:28;;;;;;;6.75;4.80;;;20.80;60.60;;;;;;5040217;28;20691;-88
2022/07/06 03:33:54;;;;;;;5.57;5.05;;;20.70;61.10;;;;;;5040770;28;20297;-88
2022/07/06 03:36:20;;;;;;;5.30;5.00;;;20.70;61.20;;;;;;5031828;28;20185;-88
2022/07/06 03:38:46;;;;;;;5.22;4.72;;;20.60;62.50;;;;;;5032139;28;20205;-88
2022/07/06 03:41:12;;;;;;;5.55;5.15;;;20.50;62.10;;;;;;5038621;28;20185;-88
2022/07/06 03:43:38;;;;;;;5.10;4.80;;;20.50;62.20;;;;;;5042466;28;20219;-90
2022/07/06 03:46:04;;;;;;;5.85;4.97;;;20.50;62.30;;;;;;5032659;28;20194;-87
2022/07/06 03:48:29;;;;;;;5.50;5.07;;;20.40;62.80;;;;;;5040148;28;20244;-87
2022/07/06 03:50:55;;;;;;;5.35;4.95;;;20.30;63.10;;;;;;5039096;28;20216;-87
2022/07/06 03:53:21;;;;;;;4.93;4.53;;;20.40;62.70;;;;;;5037587;28;20703;-88
2022/07/06 03:56:27;;;;;;;4.93;4.53;;;20.50;62.30;;;;;;5034260;28;20179;-88
2022/07/06 03:58:33;;;;;;;4.72;4.43;;;20.50;62.10;;;;;;5031997;28;20329;-88
2022/07/06 04:00:59;;;;;;;4.90;4.50;;;20.50;61.90;;;;;;5034017;28;20192;-89
2022/07/06 04:03:25;;;;;;;5.18;4.88;;;20.30;63.80;;;;;;5037604;28;20208;-88
2022/07/06 04:05:51;;;;;;;5.40;4.97;;;20.30;63.10;;;;;;5037715;28;20191;-88
2022/07/06 04:08:17;;;;;;;5.40;4.90;;;20.20;63.20;;;;;;5041284;28;20245;-88
2022/07/06 04:10:42;;;;;;;5.15;4.85;;;20.10;64.80;;;;;;5034385;28;20218;-88
2022/07/06 04:13:08;;;;;;;5.40;5.00;;;20.00;64.30;;;;;;5031594;28;20240;-88
2022/07/06 04:15:37;;;;;;;5.80;5.22;;;19.90;64.60;;;;;;5033831;28;20244;-90
2022/07/06 04:18:03;;;;;;;5.38;4.65;;;20.00;64.10;;;;;;5042893;28;20188;-89
2022/07/06 04:20:29;;;;;;;5.20;4.75;;;20.00;64.10;;;;;;5035072;28;20299;-88
2022/07/06 04:22:55;;;;;;;4.72;4.38;;;20.00;64.40;;;;;;5033668;28;20197;-88
2022/07/06 04:25:20;;;;;;;5.00;4.55;;;19.90;63.50;;;;;;5034255;28;20222;-88
2022/07/06 04:27:46;;;;;;;5.03;4.63;;;19.90;62.60;;;;;;5041052;28;20367;-90
2022/07/06 04:30:13;;;;;;;5.80;4.50;;;20.10;62.40;;;;;;5037046;28;20205;-89
2022/07/06 04:32:39;;;;;;;5.63;5.13;;;20.20;61.60;;;;;;5036883;28;20235;-87
2022/07/06 04:35:05;;;;;;;4.78;4.47;;;20.30;61.60;;;;;;5034831;28;20212;-88
2022/07/06 04:37:31;;;;;;;5.28;4.60;;;20.40;61.30;;;;;;5029116;28;20273;-88
2022/07/06 04:39:57;;;;;;;5.05;4.65;;;20.60;60.60;;;;;;5033798;28;20202;-88
2022/07/06 04:42:23;;;;;;;5.78;4.32;;;20.70;59.60;;;;;;5039241;28;20685;-89
2022/07/06 04:44:51;;;;;;;5.00;4.60;;;20.80;58.50;;;;;;5049073;28;20211;-89
2022/07/06 04:47:17;;;;;;;4.68;4.38;;;20.80;59.80;;;;;;5032146;28;20214;-88
2022/07/06 04:49:43;;;;;;;5.32;4.05;;;20.40;62.30;;;;;;5027828;28;20184;-88
2022/07/06 04:52:09;;;;;;;6.05;4.53;;;20.40;61.60;;;;;;5038591;28;20242;-88
2022/07/06 04:54:35;;;;;;;4.65;4.25;;;20.20;59.00;;;;;;5036311;28;20275;-88
2022/07/06 04:57:01;;;;;;;5.20;4.70;;;20.10;59.00;;;;;;5037284;28;20195;-87
2022/07/06 04:59:27;;;;;;;4.47;4.18;;;20.10;58.30;;;;;;5042079;28;20181;-87
2022/07/06 05:01:53;;;;;;;4.47;4.07;;;19.80;59.50;;;;;;5040870;28;20554;-87
2022/07/06 05:04:19;;;;;;;4.43;4.13;;;20.00;60.50;;;;;;5029004;28;20325;-87
2022/07/06 05:06:46;;;;;;;4.68;4.38;;;19.90;59.90;;;;;;5034955;28;20664;-88
2022/07/06 05:09:13;;;;;;;6.25;4.10;;;19.80;58.80;;;;;;5051882;28;20254;-88
2022/07/06 05:11:39;;;;;;;4.57;4.20;;;19.80;59.50;;;;;;5044463;28;20176;-88
2022/07/06 05:14:05;;;;;;;5.32;4.20;;;19.70;59.00;;;;;;5035644;28;20209;-88
2022/07/06 05:16:31;;;;;;;4.20;3.88;;;19.60;59.70;;;;;;5037357;28;20172;-88
2022/07/06 05:18:57;;;;;;;4.35;4.05;;;19.70;59.90;;;;;;5034623;28;20305;-88
2022/07/06 05:21:23;;;;;;;7.38;4.72;;;19.60;58.80;;;;;;5039290;28;20189;-87
2022/07/06 05:23:49;;;;;;;4.40;4.20;;;19.30;59.20;;;;;;5034577;28;20214;-88
2022/07/06 05:26:14;;;;;;;4.60;4.28;;;19.20;60.30;;;;;;5030780;28;20199;-87
2022/07/06 05:28:40;;;;;;;5.22;4.78;;;19.10;61.20;;;;;;5024779;28;20220;-88
2022/07/06 05:31:06;;;;;;;5.10;4.70;;;19.20;61.60;;;;;;5024773;28;20821;-88
2022/07/06 05:33:32;;;;;;;5.43;5.03;;;19.10;60.90;;;;;;5031374;28;20208;-88
2022/07/06 05:35:58;;;;;;;5.85;5.03;;;19.10;60.10;;;;;;5025020;28;20254;-88
2022/07/06 05:38:24;;;;;;;5.30;4.80;;;19.20;60.40;;;;;;5031012;28;20563;-88
2022/07/06 05:40:50;;;;;;;5.65;5.20;;;19.30;60.00;;;;;;5037816;28;20184;-88
2022/07/06 05:43:16;;;;;;;5.38;4.97;;;19.20;60.00;;;;;;5025919;28;20222;-90
2022/07/06 05:45:42;;;;;;;5.53;5.20;;;19.10;60.80;;;;;;5036487;28;20909;-87
2022/07/06 05:50:51;;;;;;;5.57;4.90;;;19.00;61.00;;;;;;5033783;28;20186;-88
2022/07/06 05:53:17;;;;;;;5.43;5.03;;;19.00;61.00;;;;;;5024211;28;20232;-87
2022/07/06 05:55:43;;;;;;;5.90;5.47;;;19.20;60.40;;;;;;5030694;28;20197;-87
2022/07/06 05:58:09;;;;;;;7.75;5.15;;;19.50;59.70;;;;;;5039622;28;20194;-86
2022/07/06 06:00:35;;;;;;;7.20;5.15;;;19.60;58.60;;;;;;5035589;28;20221;-88
2022/07/06 06:03:00;;;;;;;5.40;4.90;;;19.50;59.00;;;;;;5041300;28;20220;-88
2022/07/06 06:05:26;;;;;;;5.75;5.25;;;19.60;59.70;;;;;;5036899;28;20224;-89
2022/07/06 06:07:52;;;;;;;5.68;5.03;;;19.80;58.70;;;;;;5040804;28;20219;-89
2022/07/06 06:10:19;;;;;;;6.18;5.43;;;19.70;58.50;;;;;;5044444;28;20193;-87
2022/07/06 06:12:46;;;;;;;5.90;5.40;;;19.70;59.50;;;;;;5045355;28;20739;-88
2022/07/06 06:15:12;;;;;;;5.45;5.05;;;19.80;59.70;;;;;;5036287;28;20196;-88
2022/07/06 06:17:38;;;;;;;5.45;4.65;;;19.90;58.70;;;;;;5034893;28;20193;-89
2022/07/06 06:20:06;;;;;;;5.03;4.65;;;20.10;58.50;;;;;;5038438;28;20271;-87
2022/07/06 06:22:45;;;;;;;6.43;4.97;;;20.10;57.60;;;;;;5035405;28;20185;-87
2022/07/06 06:25:11;;;;;;;5.15;4.63;;;20.00;58.20;;;;;;5032432;28;20189;-88
2022/07/06 06:27:37;;;;;;;6.15;4.90;;;20.10;58.30;;;;;;5038507;28;20213;-89
2022/07/06 06:30:03;;;;;;;6.60;5.07;;;19.90;58.70;;;;;;5029515;28;20189;-91
2022/07/06 06:32:29;;;;;;;5.40;4.90;;;19.80;58.50;;;;;;5038522;28;20195;-88
2022/07/06 06:34:55;;;;;;;5.35;4.82;;;19.80;59.00;;;;;;5034603;28;20201;-89
2022/07/06 06:37:21;;;;;;;5.50;5.00;;;19.70;59.40;;;;;;5040586;28;20222;-89
2022/07/06 06:39:46;;;;;;;7.03;5.15;;;19.80;58.70;;;;;;5036341;28;20177;-88
2022/07/06 06:42:12;;;;;;;5.32;4.93;;;19.70;58.40;;;;;;5035307;28;20205;-88
2022/07/06 06:44:38;;;;;;;5.38;4.82;;;19.80;58.60;;;;;;5038779;28;20218;-88
2022/07/06 06:47:04;;;;;;;5.13;4.72;;;19.80;58.80;;;;;;5030551;28;20194;-88
2022/07/06 06:49:29;;;;;;;7.68;6.93;;;19.90;58.00;;;;;;5035096;28;20190;-88
2022/07/06 06:51:55;;;;;;;6.68;5.32;;;20.00;57.70;;;;;;5042268;28;20232;-89
2022/07/06 06:54:21;;;;;;;6.65;4.93;;;20.10;57.30;;;;;;5041576;28;20219;-89
2022/07/06 06:56:46;;;;;;;4.68;4.28;;;20.00;57.60;;;;;;5047045;28;20253;-87
2022/07/06 06:59:12;;;;;;;6.47;4.95;;;20.20;57.80;;;;;;5046298;28;20182;-89
2022/07/06 07:01:38;;;;;;;6.65;4.75;;;20.20;56.90;;;;;;5038798;28;20185;-87
2022/07/06 07:04:04;;;;;;;5.32;4.72;;;20.10;57.50;;;;;;5041674;28;20212;-88
2022/07/06 07:06:29;;;;;;;8.02;5.07;;;20.10;57.70;;;;;;5039945;28;20193;-88
2022/07/06 07:08:56;;;;;;;5.22;4.72;;;20.30;57.70;;;;;;5042933;28;20239;-87
2022/07/06 07:11:21;;;;;;;4.70;4.38;;;20.40;56.50;;;;;;5049931;28;20173;-89
2022/07/06 07:13:47;;;;;;;5.35;4.70;;;20.50;56.50;;;;;;5054687;28;20235;-90
2022/07/06 07:16:13;;;;;;;4.70;4.40;;;20.70;56.30;;;;;;5044993;28;20237;-88
2022/07/06 07:18:38;;;;;;;4.90;4.53;;;20.40;57.00;;;;;;5036547;28;20219;-88
2022/07/06 07:21:04;;;;;;;4.97;4.57;;;20.70;57.90;;;;;;5034833;28;20185;-88
2022/07/06 07:23:30;;;;;;;8.93;4.50;;;20.90;56.20;;;;;;5036512;28;20275;-88
2022/07/06 07:25:56;;;;;;;4.50;4.10;;;20.80;55.70;;;;;;5030702;28;20195;-88
2022/07/06 07:28:21;;;;;;;5.35;4.85;;;20.80;55.90;;;;;;5032008;28;20213;-88
2022/07/06 07:30:47;;;;;;;5.35;4.85;;;20.90;55.00;;;;;;5029406;28;20219;-90
2022/07/06 07:33:13;;;;;;;4.55;3.90;;;20.80;56.50;;;;;;5035258;28;20206;-87
2022/07/06 07:35:39;;;;;;;4.53;4.13;;;20.90;56.30;;;;;;5040728;28;20197;-88
2022/07/06 07:38:05;;;;;;;6.38;4.35;;;21.20;55.60;;;;;;5032865;28;20259;-87
2022/07/06 07:40:31;;;;;;;4.63;4.32;;;21.10;54.90;;;;;;5031478;28;20554;-87
2022/07/06 07:42:56;;;;;;;4.75;4.32;;;21.10;55.20;;;;;;5038551;28;20213;-88
2022/07/06 07:45:23;;;;;;;5.13;4.72;;;21.00;55.50;;;;;;5032557;28;20200;-88
2022/07/06 07:47:48;;;;;;;5.93;4.63;;;20.90;55.20;;;;;;5035289;28;20216;-87
2022/07/06 07:50:14;;;;;;;5.05;4.65;;;20.80;54.60;;;;;;5037313;28;20245;-86
2022/07/06 07:52:40;;;;;;;5.90;4.50;;;20.90;55.50;;;;;;5034917;28;20489;-87
2022/07/06 07:55:06;;;;;;;7.80;4.50;;;21.20;53.90;;;;;;5032179;28;20201;-89
2022/07/06 07:57:32;;;;;;;5.63;4.35;;;21.20;54.90;;;;;;5028491;28;20186;-88
2022/07/06 07:59:58;;;;;;;4.47;4.10;;;21.30;54.20;;;;;;5031652;28;20253;-88
2022/07/06 08:02:23;;;;;;;4.40;4.00;;;21.30;53.10;;;;;;5033084;28;20205;-88
2022/07/06 08:04:49;;;;;;;4.97;3.90;;;21.20;54.50;;;;;;5038803;28;20714;-87
2022/07/06 08:07:15;;;;;;;4.35;3.95;;;21.30;54.40;;;;;;5028035;28;20762;-86
2022/07/06 08:09:41;;;;;;;5.10;4.22;;;21.10;54.10;;;;;;5030797;28;20675;-88
2022/07/06 08:12:07;;;;;;;5.00;4.40;;;21.20;53.80;;;;;;5032299;28;20208;-88
2022/07/06 08:14:33;;;;;;;4.88;4.40;;;21.20;54.70;;;;;;5033747;28;20242;-88
2022/07/06 08:16:58;;;;;;;5.88;4.40;;;21.10;53.80;;;;;;5035150;28;20547;-87
2022/07/06 08:19:24;;;;;;;4.38;4.05;;;21.30;54.10;;;;;;5028287;28;20195;-89
2022/07/06 08:21:50;;;;;;;4.53;4.10;;;21.60;53.30;;;;;;5031247;28;20327;-87
2022/07/06 08:24:16;;;;;;;4.45;4.13;;;21.40;52.80;;;;;;5026106;28;20233;-88
2022/07/06 08:26:41;;;;;;;4.78;4.35;;;21.30;53.60;;;;;;5026299;28;20198;-88
2022/07/06 08:29:07;;;;;;;4.93;4.00;;;21.50;52.50;;;;;;5039356;28;20713;-88
2022/07/06 08:31:34;;;;;;;5.03;4.32;;;21.70;52.80;;;;;;5036104;28;20227;-89
2022/07/06 08:34:01;;;;;;;4.55;4.07;;;21.90;51.40;;;;;;5036910;28;20220;-87
2022/07/06 08:36:27;;;;;;;4.43;3.92;;;21.90;51.10;;;;;;5030765;28;20187;-89
2022/07/06 08:38:53;;;;;;;4.38;3.97;;;22.10;50.80;;;;;;5032134;28;20206;-88
2022/07/06 08:41:23;;;;;;;5.20;4.68;;;22.30;51.50;;;;;;5030627;28;20321;-88
2022/07/06 08:43:50;;;;;;;4.68;4.38;;;22.50;52.20;;;;;;5025322;28;20200;-87
2022/07/06 08:46:16;;;;;;;4.80;4.40;;;22.60;50.30;;;;;;5038631;28;20191;-89
2022/07/06 08:48:42;;;;;;;6.38;4.68;;;22.80;50.10;;;;;;5033366;28;20214;-87
2022/07/06 08:51:08;;;;;;;5.10;4.72;;;22.80;48.70;;;;;;5030170;28;20550;-88
2022/07/06 08:53:34;;;;;;;6.15;4.75;;;22.80;48.20;;;;;;5027551;28;20229;-88
2022/07/06 08:56:01;;;;;;;5.15;4.78;;;23.00;48.10;;;;;;5029269;28;20203;-88
2022/07/06 08:58:27;;;;;;;5.03;4.57;;;22.80;48.10;;;;;;5028028;28;20196;-87
2022/07/06 09:00:55;;;;;;;5.55;5.10;;;23.10;48.40;;;;;;5028719;28;20275;-87
2022/07/06 09:03:21;;;;;;;6.03;5.53;;;23.20;46.40;;;;;;5032311;28;20233;-87
2022/07/06 09:05:47;;;;;;;5.60;4.95;;;23.00;47.30;;;;;;5027117;28;20235;-87
2022/07/06 09:08:13;;;;;;;5.97;5.38;;;22.90;47.70;;;;;;5037367;28;20243;-87
2022/07/06 09:10:39;;;;;;;8.15;5.07;;;22.90;47.10;;;;;;5032473;28;20201;-88
2022/07/06 09:13:06;;;;;;;5.18;4.75;;;22.70;48.70;;;;;;5038436;28;20208;-87
2022/07/06 09:15:38;;;;;;;5.45;4.95;;;22.90;49.10;;;;;;5034613;28;20193;-87
2022/07/06 09:18:04;;;;;;;7.18;4.82;;;23.00;47.80;;;;;;5027290;28;20185;-88
2022/07/06 09:20:31;;;;;;;5.30;4.90;;;22.90;47.10;;;;;;5031440;28;20189;-87
2022/07/06 09:23:01;;;;;;;5.35;4.90;;;23.10;46.80;;;;;;5036233;28;20205;-87
2022/07/06 09:25:27;;;;;;;5.43;4.93;;;23.30;46.30;;;;;;5035976;28;20771;-87
2022/07/06 09:27:54;;;;;;;5.82;5.32;;;23.50;45.80;;;;;;5039393;28;20277;-90
2022/07/06 09:30:22;;;;;;;5.72;5.22;;;23.50;46.20;;;;;;5031308;28;20185;-86
2022/07/06 09:32:50;;;;;;;5.97;5.47;;;23.70;45.60;;;;;;5031213;28;20296;-88
2022/07/06 09:35:39;;;;;;;5.90;5.43;;;23.80;43.50;;;;;;5041223;28;20189;-87
2022/07/06 09:38:08;;;;;;;5.78;5.32;;;23.80;43.40;;;;;;5045579;28;20208;-87
2022/07/06 09:40:40;;;;;;;5.97;5.47;;;24.00;43.20;;;;;;5033374;28;20193;-88
2022/07/06 09:43:08;;;;;;;6.38;5.88;;;24.40;43.50;;;;;;5037061;28;20689;-88
2022/07/06 09:45:38;;;;;;;5.93;5.53;;;24.30;42.80;;;;;;5028974;28;20185;-88
2022/07/06 09:48:27;;;;;;;6.47;5.88;;;24.50;43.10;;;;;;5028599;28;20236;-88
2022/07/06 09:50:55;;;;;;;6.18;5.63;;;24.90;41.00;;;;;;5025816;28;20193;-87
2022/07/06 09:53:24;;;;;;;6.40;5.43;;;24.80;40.20;;;;;;5033734;28;20265;-88
2022/07/06 09:55:55;;;;;;;5.57;5.20;;;24.90;41.00;;;;;;5029674;28;20515;-89
2022/07/06 09:58:22;;;;;;;8.57;5.97;;;25.10;40.60;;;;;;5027161;28;20677;-88
2022/07/06 10:00:49;;;;;;;5.63;5.28;;;25.30;39.50;;;;;;5028129;28;20557;-88
2022/07/06 10:03:16;;;;;;;5.93;5.43;;;25.50;39.60;;;;;;5032843;28;20206;-88
2022/07/06 10:05:46;;;;;;;6.35;5.95;;;25.70;38.70;;;;;;5029417;28;20188;-89
2022/07/06 10:08:14;;;;;;;10.88;6.82;;;26.00;38.80;;;;;;5025063;28;20224;-89
2022/07/06 10:10:41;;;;;;;6.25;5.50;;;26.20;38.20;;;;;;5024465;28;20208;-89
2022/07/06 10:13:08;;;;;;;6.32;5.90;;;26.20;37.80;;;;;;5029680;28;20819;-88
2022/07/06 10:15:36;;;;;;;6.40;5.90;;;25.80;37.50;;;;;;5030371;28;20790;-88
2022/07/06 10:18:05;;;;;;;5.40;4.97;;;25.40;38.90;;;;;;5031471;28;20661;-87
2022/07/06 10:20:36;;;;;;;6.50;4.95;;;25.50;39.90;;;;;;5027052;28;20781;-89
2022/07/06 10:23:03;;;;;;;6.15;5.65;;;25.90;39.10;;;;;;5030576;28;20288;-88
2022/07/06 10:25:29;;;;;;;6.22;5.22;;;26.10;37.90;;;;;;5027146;28;20185;-89
2022/07/06 10:27:56;;;;;;;5.88;5.38;;;26.00;39.00;;;;;;5024499;28;20213;-89
2022/07/06 10:30:23;;;;;;;6.22;5.72;;;26.40;38.40;;;;;;5035066;28;20280;-88
2022/07/06 10:32:50;;;;;;;5.97;5.57;;;26.90;36.90;;;;;;5030496;28;20213;-88
2022/07/06 10:35:19;;;;;;;6.50;6.03;;;27.20;37.60;;;;;;5031704;28;20938;-89
2022/07/06 10:37:45;;;;;;;6.22;5.82;;;27.10;37.50;;;;;;5026697;28;20614;-87
2022/07/06 10:43:00;;;;;;;6.07;5.68;;;26.80;37.50;;;;;;5031921;28;20220;-88
2022/07/06 10:45:29;;;;;;;6.22;5.68;;;26.80;37.50;;;;;;5032036;28;20192;-88
2022/07/06 10:48:15;;;;;;;6.22;5.47;;;26.80;37.20;;;;;;5036163;28;20205;-88
2022/07/06 10:50:55;;;;;;;6.30;5.70;;;26.90;36.80;;;;;;5039596;28;20235;-89
2022/07/06 10:53:26;;;;;;;5.95;5.55;;;26.50;38.30;;;;;;5029220;28;20211;-88
2022/07/06 10:55:54;;;;;;;5.45;5.15;;;26.20;38.70;;;;;;5040544;28;20192;-89
2022/07/06 10:58:53;;;;;;;6.63;5.57;;;26.40;38.70;;;;;;5027700;28;20196;-88
2022/07/06 11:01:20;;;;;;;6.20;5.80;;;26.80;37.30;;;;;;5054569;28;20185;-88
2022/07/06 11:03:53;;;;;;;5.85;5.45;;;26.90;38.10;;;;;;5029828;28;20317;-87
2022/07/06 11:06:21;;;;;;;5.97;5.57;;;27.40;38.20;;;;;;5043652;28;20240;-87
2022/07/06 11:08:54;;;;;;;6.00;5.65;;;27.90;36.10;;;;;;5036056;28;20215;-89
2022/07/06 11:11:32;;;;;;;6.13;5.63;;;28.00;36.50;;;;;;5040540;28;20195;-89
2022/07/06 11:14:11;;;;;;;6.25;5.85;;;28.00;36.70;;;;;;5039354;28;20943;-88
2022/07/06 11:16:47;;;;;;;6.13;5.68;;;28.10;36.20;;;;;;5038183;28;20220;-87
2022/07/06 11:19:23;;;;;;;6.03;5.60;;;27.70;36.50;;;;;;5044758;28;20243;-89
2022/07/06 11:22:08;;;;;;;6.85;5.70;;;26.90;37.90;;;;;;5044924;28;20255;-88
2022/07/06 11:24:38;;;;;;;8.45;5.50;;;26.70;38.10;;;;;;5032994;28;20228;-88
2022/07/06 11:27:06;;;;;;;5.97;5.47;;;26.80;37.80;;;;;;5035654;28;20221;-87
2022/07/06 11:29:34;;;;;;;6.30;5.70;;;27.40;38.30;;;;;;5045966;28;20248;-87
2022/07/06 11:32:03;;;;;;;6.30;5.72;;;27.60;36.70;;;;;;5032211;28;20213;-88
2022/07/06 11:34:38;;;;;;;6.55;6.15;;;27.70;36.10;;;;;;5043473;28;20281;-89
2022/07/06 11:37:07;;;;;;;6.20;5.80;;;28.10;35.30;;;;;;5036270;28;20406;-89
2022/07/06 11:39:44;;;;;;;6.47;6.07;;;28.30;35.30;;;;;;5041672;28;20199;-88
2022/07/06 11:42:12;;;;;;;6.53;5.93;;;28.60;34.90;;;;;;5043891;28;20201;-88
2022/07/06 11:44:39;;;;;;;6.13;5.72;;;28.10;34.90;;;;;;5046547;28;20200;-88
2022/07/06 11:47:06;;;;;;;6.47;6.07;;;27.60;36.40;;;;;;5040836;28;20289;-89
2022/07/06 11:49:34;;;;;;;6.10;5.57;;;27.30;37.20;;;;;;5046120;28;20212;-89
2022/07/06 11:52:00;;;;;;;6.25;5.75;;;27.20;37.60;;;;;;5039339;28;20181;-88
2022/07/06 11:54:26;;;;;;;5.93;5.43;;;26.70;37.50;;;;;;5043791;28;20590;-89
2022/07/06 11:57:00;;;;;;;5.90;5.60;;;26.70;38.40;;;;;;5049865;28;20195;-88
2022/07/06 11:59:29;;;;;;;5.68;5.38;;;27.40;37.10;;;;;;5036498;28;20184;-88
2022/07/06 12:02:12;;;;;;;6.10;5.63;;;27.80;35.50;;;;;;5035372;28;20193;-88
2022/07/06 12:04:40;;;;;;;6.15;5.70;;;27.90;35.20;;;;;;5027540;28;20201;-88
2022/07/06 12:07:08;;;;;;;6.22;5.70;;;28.00;36.00;;;;;;5035860;28;20251;-88
2022/07/06 12:09:37;;;;;;;6.65;6.25;;;28.90;33.80;;;;;;5039054;28;20307;-89
2022/07/06 12:12:07;;;;;;;6.80;6.40;;;29.60;32.60;;;;;;5030406;28;20246;-89
2022/07/06 12:14:34;;;;;;;6.53;6.13;;;29.20;33.10;;;;;;5048311;28;20199;-89
2022/07/06 12:17:08;;;;;;;7.03;6.63;;;29.00;34.00;;;;;;5029031;28;20740;-86
2022/07/06 12:19:35;;;;;;;7.15;6.57;;;28.40;34.30;;;;;;5045730;28;20243;-88
2022/07/06 12:22:02;;;;;;;6.15;5.70;;;27.90;35.50;;;;;;5051552;28;20188;-89
2022/07/06 12:24:32;;;;;;;6.65;6.13;;;27.40;37.10;;;;;;5039698;28;20209;-88
2022/07/06 12:27:08;;;;;;;6.25;5.85;;;27.20;36.80;;;;;;5053567;28;20304;-89
2022/07/06 12:29:34;;;;;;;6.60;6.15;;;27.50;35.70;;;;;;5049444;28;20232;-90
2022/07/06 12:32:01;;;;;;;6.05;5.60;;;27.90;34.30;;;;;;5047800;28;20212;-90
2022/07/06 12:34:34;;;;;;;6.82;6.18;;;27.40;35.40;;;;;;5039887;28;20208;-88
2022/07/06 12:37:06;;;;;;;6.35;5.82;;;27.80;35.60;;;;;;5040464;28;20197;-87
2022/07/06 12:39:40;;;;;;;6.30;5.90;;;27.40;35.40;;;;;;5038026;28;20185;-88
2022/07/06 12:42:06;;;;;;;6.53;6.15;;;27.30;35.50;;;;;;5037160;28;20189;-88
2022/07/06 12:44:32;;;;;;;6.03;5.72;;;28.10;35.20;;;;;;5040942;28;20269;-89
2022/07/06 12:47:06;;;;;;;6.65;6.18;;;28.20;34.00;;;;;;5042247;28;20235;-88
2022/07/06 12:49:32;;;;;;;6.35;5.95;;;27.90;34.30;;;;;;5036409;28;20234;-89
2022/07/06 12:52:15;;;;;;;6.82;6.30;;;27.70;34.70;;;;;;5039916;28;20181;-88
2022/07/06 12:54:51;;;;;;;6.82;6.18;;;27.90;35.40;;;;;;5044243;28;20220;-88